Avella, Pennsylvania
Current Conditions -  °F | °C
As of 4:53 AM on Wednesday 26 Nov 2014 (Local Time) from KHLG Reporting Station
Clear Clear  
Wind Chill: -5°   Ceiling: Unl
Heat Index: -1°   Visibility: 10mi
Dew Point: -4°   Wind: 7mph
Humidity: 79%   Direction: 40°NE
Pressure: 30.09"   Gusts: NA
Location:  40.28°N, 80.46°W
Report Text: KHLG 260953Z AUTO 04006KT 10SM CLR M01/M04 A3009 RMK AO2 SLP203 T10111044
Loading
Personal Weather Stations






























Interactive Weather Map New forecast layout! Learn more

10-Day Weather Forecast

Advertisements
Track Severe Weather on mobile